sensor_id;sensor_type;location;lat;lon;timestamp;P1;durP1;ratioP1;P2;durP2;ratioP2
12222;SDS011;6174;49.058;8.524;2022-10-15T05:02:41;1.20;;;1.10;;
12222;SDS011;6174;49.058;8.524;2022-10-15T05:05:08;1.93;;;1.10;;
12222;SDS011;6174;49.058;8.524;2022-10-15T05:07:35;1.40;;;1.13;;
12222;SDS011;6174;49.058;8.524;2022-10-15T05:10:01;2.57;;;0.93;;
12222;SDS011;6174;49.058;8.524;2022-10-15T05:12:28;3.97;;;1.20;;
12222;SDS011;6174;49.058;8.524;2022-10-15T05:14:55;0.93;;;0.87;;
12222;SDS011;6174;49.058;8.524;2022-10-15T05:17:22;1.63;;;0.83;;
12222;SDS011;6174;49.058;8.524;2022-10-15T05:19:50;2.33;;;1.20;;
12222;SDS011;6174;49.058;8.524;2022-10-15T05:22:16;1.50;;;1.20;;
12222;SDS011;6174;49.058;8.524;2022-10-15T05:24:43;2.30;;;0.87;;
12222;SDS011;6174;49.058;8.524;2022-10-15T05:27:10;1.63;;;1.23;;
12222;SDS011;6174;49.058;8.524;2022-10-15T05:29:37;2.40;;;0.93;;
12222;SDS011;6174;49.058;8.524;2022-10-15T05:32:04;1.10;;;1.00;;
12222;SDS011;6174;49.058;8.524;2022-10-15T05:34:30;1.10;;;0.90;;
12222;SDS011;6174;49.058;8.524;2022-10-15T05:36:59;1.70;;;0.90;;
12222;SDS011;6174;49.058;8.524;2022-10-15T05:39:25;2.87;;;1.20;;
12222;SDS011;6174;49.058;8.524;2022-10-15T05:41:52;2.33;;;1.00;;
12222;SDS011;6174;49.058;8.524;2022-10-15T05:44:19;2.60;;;1.20;;
12222;SDS011;6174;49.058;8.524;2022-10-15T05:46:45;1.03;;;1.00;;
12222;SDS011;6174;49.058;8.524;2022-10-15T05:49:14;1.50;;;1.10;;
12222;SDS011;6174;49.058;8.524;2022-10-15T05:51:43;2.60;;;1.30;;
12222;SDS011;6174;49.058;8.524;2022-10-15T05:54:11;3.20;;;1.53;;
12222;SDS011;6174;49.058;8.524;2022-10-15T05:56:38;2.90;;;1.50;;
12222;SDS011;6174;49.058;8.524;2022-10-15T05:59:04;2.90;;;1.80;;
12222;SDS011;6174;49.058;8.524;2022-10-15T06:01:31;1.70;;;1.60;;
12222;SDS011;6174;49.058;8.524;2022-10-15T06:03:58;2.77;;;1.57;;
12222;SDS011;6174;49.058;8.524;2022-10-15T06:06:25;3.57;;;1.47;;
12222;SDS011;6174;49.058;8.524;2022-10-15T06:08:52;2.43;;;1.30;;
12222;SDS011;6174;49.058;8.524;2022-10-15T06:11:20;1.30;;;1.20;;
12222;SDS011;6174;49.058;8.524;2022-10-15T06:13:47;2.47;;;1.10;;
12222;SDS011;6174;49.058;8.524;2022-10-15T06:16:15;1.60;;;1.40;;
12222;SDS011;6174;49.058;8.524;2022-10-15T06:18:42;2.63;;;1.70;;
12222;SDS011;6174;49.058;8.524;2022-10-15T06:21:09;1.83;;;1.40;;
12222;SDS011;6174;49.058;8.524;2022-10-15T06:23:36;1.60;;;1.50;;
12222;SDS011;6174;49.058;8.524;2022-10-15T06:26:04;2.33;;;1.30;;
12222;SDS011;6174;49.058;8.524;2022-10-15T06:28:33;2.80;;;1.70;;
12222;SDS011;6174;49.058;8.524;2022-10-15T06:31:02;1.60;;;1.50;;
12222;SDS011;6174;49.058;8.524;2022-10-15T06:33:29;1.53;;;1.43;;
12222;SDS011;6174;49.058;8.524;2022-10-15T06:35:59;1.43;;;1.20;;
12222;SDS011;6174;49.058;8.524;2022-10-15T06:38:26;1.40;;;1.27;;
12222;SDS011;6174;49.058;8.524;2022-10-15T06:40:53;1.40;;;1.30;;
12222;SDS011;6174;49.058;8.524;2022-10-15T06:43:20;1.40;;;1.30;;
12222;SDS011;6174;49.058;8.524;2022-10-15T06:45:48;2.40;;;1.33;;
12222;SDS011;6174;49.058;8.524;2022-10-15T06:48:16;1.97;;;1.33;;
12222;SDS011;6174;49.058;8.524;2022-10-15T06:50:43;1.73;;;1.53;;
12222;SDS011;6174;49.058;8.524;2022-10-15T06:53:10;1.73;;;1.40;;
12222;SDS011;6174;49.058;8.524;2022-10-15T06:55:36;1.50;;;1.40;;
12222;SDS011;6174;49.058;8.524;2022-10-15T06:58:04;2.60;;;1.30;;
12222;SDS011;6174;49.058;8.524;2022-10-15T07:00:30;2.63;;;1.53;;
12222;SDS011;6174;49.058;8.524;2022-10-15T07:03:02;2.33;;;1.37;;
12222;SDS011;6174;49.058;8.524;2022-10-15T07:05:30;1.70;;;1.30;;
12222;SDS011;6174;49.058;8.524;2022-10-15T07:07:57;1.10;;;1.03;;
12222;SDS011;6174;49.058;8.524;2022-10-15T07:10:25;1.30;;;1.10;;
12222;SDS011;6174;49.058;8.524;2022-10-15T07:12:52;2.07;;;1.30;;
12222;SDS011;6174;49.058;8.524;2022-10-15T07:15:19;1.40;;;1.30;;
12222;SDS011;6174;49.058;8.524;2022-10-15T07:17:46;1.33;;;1.23;;
12222;SDS011;6174;49.058;8.524;2022-10-15T07:20:15;1.50;;;1.17;;
12222;SDS011;6174;49.058;8.524;2022-10-15T07:22:42;3.07;;;1.50;;
12222;SDS011;6174;49.058;8.524;2022-10-15T07:25:08;1.67;;;1.50;;
12222;SDS011;6174;49.058;8.524;2022-10-15T07:27:35;1.40;;;1.30;;
12222;SDS011;6174;49.058;8.524;2022-10-15T07:30:03;1.50;;;1.40;;
12222;SDS011;6174;49.058;8.524;2022-10-15T07:32:31;1.50;;;1.40;;
12222;SDS011;6174;49.058;8.524;2022-10-15T07:34:58;1.90;;;1.80;;
12222;SDS011;6174;49.058;8.524;2022-10-15T07:37:26;2.57;;;1.60;;
12222;SDS011;6174;49.058;8.524;2022-10-15T07:39:53;3.60;;;2.20;;
12222;SDS011;6174;49.058;8.524;2022-10-15T07:42:19;1.90;;;1.37;;
12222;SDS011;6174;49.058;8.524;2022-10-15T07:44:46;1.60;;;1.50;;
12222;SDS011;6174;49.058;8.524;2022-10-15T07:47:13;4.03;;;1.60;;
12222;SDS011;6174;49.058;8.524;2022-10-15T07:49:40;1.67;;;1.27;;
12222;SDS011;6174;49.058;8.524;2022-10-15T07:52:06;3.37;;;1.73;;
12222;SDS011;6174;49.058;8.524;2022-10-15T07:54:34;2.77;;;2.20;;
12222;SDS011;6174;49.058;8.524;2022-10-15T07:57:01;3.40;;;3.00;;
12222;SDS011;6174;49.058;8.524;2022-10-15T07:59:30;3.03;;;2.50;;
12222;SDS011;6174;49.058;8.524;2022-10-15T08:01:57;1.70;;;1.50;;
12222;SDS011;6174;49.058;8.524;2022-10-15T08:04:24;1.57;;;1.47;;
12222;SDS011;6174;49.058;8.524;2022-10-15T08:06:51;2.33;;;1.40;;
12222;SDS011;6174;49.058;8.524;2022-10-15T08:09:17;1.80;;;1.50;;
12222;SDS011;6174;49.058;8.524;2022-10-15T08:11:46;1.60;;;1.23;;
12222;SDS011;6174;49.058;8.524;2022-10-15T08:14:12;1.20;;;1.10;;
12222;SDS011;6174;49.058;8.524;2022-10-15T08:16:39;1.17;;;0.97;;
12222;SDS011;6174;49.058;8.524;2022-10-15T08:19:06;1.27;;;1.23;;
12222;SDS011;6174;49.058;8.524;2022-10-15T08:21:32;1.37;;;1.07;;
12222;SDS011;6174;49.058;8.524;2022-10-15T08:23:59;4.33;;;1.23;;
12222;SDS011;6174;49.058;8.524;2022-10-15T08:26:26;1.53;;;1.07;;
12222;SDS011;6174;49.058;8.524;2022-10-15T08:28:54;1.27;;;0.90;;
12222;SDS011;6174;49.058;8.524;2022-10-15T08:31:21;2.43;;;1.07;;
12222;SDS011;6174;49.058;8.524;2022-10-15T08:33:47;0.90;;;0.90;;
12222;SDS011;6174;49.058;8.524;2022-10-15T08:36:15;1.30;;;1.20;;
12222;SDS011;6174;49.058;8.524;2022-10-15T08:38:41;1.70;;;1.00;;
12222;SDS011;6174;49.058;8.524;2022-10-15T08:41:13;2.07;;;1.07;;
12222;SDS011;6174;49.058;8.524;2022-10-15T08:43:48;2.30;;;0.87;;
12222;SDS011;6174;49.058;8.524;2022-10-15T08:46:17;1.10;;;0.93;;
12222;SDS011;6174;49.058;8.524;2022-10-15T08:48:49;0.90;;;0.90;;
12222;SDS011;6174;49.058;8.524;2022-10-15T08:51:19;3.60;;;2.40;;
12222;SDS011;6174;49.058;8.524;2022-10-15T08:53:49;1.00;;;1.00;;
12222;SDS011;6174;49.058;8.524;2022-10-15T08:56:19;1.40;;;0.97;;
12222;SDS011;6174;49.058;8.524;2022-10-15T08:58:50;1.67;;;0.97;;
12222;SDS011;6174;49.058;8.524;2022-10-15T09:01:27;1.00;;;1.00;;
12222;SDS011;6174;49.058;8.524;2022-10-15T09:04:01;1.57;;;1.00;;
12222;SDS011;6174;49.058;8.524;2022-10-15T09:06:37;2.30;;;1.10;;
12222;SDS011;6174;49.058;8.524;2022-10-15T09:09:06;2.17;;;0.90;;
12222;SDS011;6174;49.058;8.524;2022-10-15T09:11:43;1.07;;;0.97;;
12222;SDS011;6174;49.058;8.524;2022-10-15T09:14:19;1.10;;;1.00;;
12222;SDS011;6174;49.058;8.524;2022-10-15T09:16:50;2.17;;;1.43;;
12222;SDS011;6174;49.058;8.524;2022-10-15T09:19:18;1.07;;;1.07;;
12222;SDS011;6174;49.058;8.524;2022-10-15T09:21:47;1.80;;;1.10;;
12222;SDS011;6174;49.058;8.524;2022-10-15T09:24:17;1.33;;;0.90;;
12222;SDS011;6174;49.058;8.524;2022-10-15T09:26:49;1.10;;;1.00;;
12222;SDS011;6174;49.058;8.524;2022-10-15T09:29:21;1.03;;;0.70;;
12222;SDS011;6174;49.058;8.524;2022-10-15T09:31:54;0.80;;;0.80;;
12222;SDS011;6174;49.058;8.524;2022-10-15T09:34:29;2.53;;;1.30;;
12222;SDS011;6174;49.058;8.524;2022-10-15T09:37:01;2.27;;;1.50;;
12222;SDS011;6174;49.058;8.524;2022-10-15T09:39:38;0.87;;;0.87;;
12222;SDS011;6174;49.058;8.524;2022-10-15T09:42:17;1.50;;;0.90;;
12222;SDS011;6174;49.058;8.524;2022-10-15T09:44:51;1.00;;;1.00;;
12222;SDS011;6174;49.058;8.524;2022-10-15T09:47:23;0.90;;;0.90;;
12222;SDS011;6174;49.058;8.524;2022-10-15T09:49:52;1.57;;;0.80;;
12222;SDS011;6174;49.058;8.524;2022-10-15T09:52:20;1.13;;;0.77;;
12222;SDS011;6174;49.058;8.524;2022-10-15T09:55:00;1.03;;;0.80;;
12222;SDS011;6174;49.058;8.524;2022-10-15T09:57:33;1.60;;;0.80;;
12222;SDS011;6174;49.058;8.524;2022-10-15T10:00:03;4.43;;;0.90;;
12222;SDS011;6174;49.058;8.524;2022-10-15T10:02:39;1.07;;;0.97;;
12222;SDS011;6174;49.058;8.524;2022-10-15T10:05:28;1.17;;;0.80;;
12222;SDS011;6174;49.058;8.524;2022-10-15T10:08:06;0.93;;;0.93;;
12222;SDS011;6174;49.058;8.524;2022-10-15T10:10:34;1.00;;;0.90;;
12222;SDS011;6174;49.058;8.524;2022-10-15T10:13:02;0.90;;;0.90;;
12222;SDS011;6174;49.058;8.524;2022-10-15T10:15:33;1.73;;;0.83;;
12222;SDS011;6174;49.058;8.524;2022-10-15T10:18:03;0.70;;;0.70;;
12222;SDS011;6174;49.058;8.524;2022-10-15T10:20:30;1.37;;;0.80;;
12222;SDS011;6174;49.058;8.524;2022-10-15T10:22:58;1.97;;;0.87;;
12222;SDS011;6174;49.058;8.524;2022-10-15T10:25:28;2.27;;;0.90;;
12222;SDS011;6174;49.058;8.524;2022-10-15T10:27:58;0.80;;;0.70;;
12222;SDS011;6174;49.058;8.524;2022-10-15T10:30:31;1.37;;;0.83;;
12222;SDS011;6174;49.058;8.524;2022-10-15T10:33:02;1.37;;;0.80;;
12222;SDS011;6174;49.058;8.524;2022-10-15T10:35:33;1.83;;;0.80;;
12222;SDS011;6174;49.058;8.524;2022-10-15T10:38:16;1.53;;;1.00;;
12222;SDS011;6174;49.058;8.524;2022-10-15T10:40:48;1.23;;;0.73;;
12222;SDS011;6174;49.058;8.524;2022-10-15T10:43:17;1.60;;;1.00;;
12222;SDS011;6174;49.058;8.524;2022-10-15T10:45:52;2.57;;;0.90;;
12222;SDS011;6174;49.058;8.524;2022-10-15T10:48:25;1.27;;;0.90;;
12222;SDS011;6174;49.058;8.524;2022-10-15T10:51:00;0.83;;;0.83;;
12222;SDS011;6174;49.058;8.524;2022-10-15T10:53:29;2.03;;;0.70;;
12222;SDS011;6174;49.058;8.524;2022-10-15T10:55:56;1.70;;;0.87;;
12222;SDS011;6174;49.058;8.524;2022-10-15T10:58:26;1.00;;;0.90;;
12222;SDS011;6174;49.058;8.524;2022-10-15T11:00:54;0.90;;;0.63;;
12222;SDS011;6174;49.058;8.524;2022-10-15T11:03:28;1.27;;;1.00;;
12222;SDS011;6174;49.058;8.524;2022-10-15T11:06:00;1.40;;;1.00;;
12222;SDS011;6174;49.058;8.524;2022-10-15T11:08:38;0.90;;;0.80;;
12222;SDS011;6174;49.058;8.524;2022-10-15T11:11:11;3.43;;;1.20;;
12222;SDS011;6174;49.058;8.524;2022-10-15T11:13:49;2.27;;;1.20;;
12222;SDS011;6174;49.058;8.524;2022-10-15T11:16:28;2.07;;;1.07;;
12222;SDS011;6174;49.058;8.524;2022-10-15T11:19:04;2.43;;;0.70;;
12222;SDS011;6174;49.058;8.524;2022-10-15T11:21:45;3.40;;;1.10;;
12222;SDS011;6174;49.058;8.524;2022-10-15T11:24:20;1.60;;;0.90;;
12222;SDS011;6174;49.058;8.524;2022-10-15T11:27:08;2.27;;;0.93;;
12222;SDS011;6174;49.058;8.524;2022-10-15T11:29:47;2.13;;;1.33;;
12222;SDS011;6174;49.058;8.524;2022-10-15T11:32:22;2.03;;;1.00;;
12222;SDS011;6174;49.058;8.524;2022-10-15T11:35:07;1.63;;;1.07;;
12222;SDS011;6174;49.058;8.524;2022-10-15T11:37:47;1.63;;;0.90;;
12222;SDS011;6174;49.058;8.524;2022-10-15T11:40:19;2.73;;;1.17;;
12222;SDS011;6174;49.058;8.524;2022-10-15T11:42:52;1.20;;;0.90;;
12222;SDS011;6174;49.058;8.524;2022-10-15T11:45:31;2.40;;;0.93;;
12222;SDS011;6174;49.058;8.524;2022-10-15T11:48:19;3.03;;;1.20;;
12222;SDS011;6174;49.058;8.524;2022-10-15T11:50:56;1.00;;;0.87;;
12222;SDS011;6174;49.058;8.524;2022-10-15T11:53:43;1.70;;;1.00;;
12222;SDS011;6174;49.058;8.524;2022-10-15T11:56:22;1.80;;;1.03;;
12222;SDS011;6174;49.058;8.524;2022-10-15T11:58:52;1.17;;;1.00;;
12222;SDS011;6174;49.058;8.524;2022-10-15T12:01:23;2.70;;;1.20;;
12222;SDS011;6174;49.058;8.524;2022-10-15T12:03:52;1.20;;;0.93;;
12222;SDS011;6174;49.058;8.524;2022-10-15T12:06:24;1.20;;;0.90;;
12222;SDS011;6174;49.058;8.524;2022-10-15T12:08:54;4.20;;;1.20;;
12222;SDS011;6174;49.058;8.524;2022-10-15T12:11:25;2.27;;;0.90;;
12222;SDS011;6174;49.058;8.524;2022-10-15T12:14:01;2.60;;;1.00;;
12222;SDS011;6174;49.058;8.524;2022-10-15T12:16:34;3.73;;;1.07;;
12222;SDS011;6174;49.058;8.524;2022-10-15T12:19:09;2.13;;;0.83;;
12222;SDS011;6174;49.058;8.524;2022-10-15T12:21:43;1.50;;;0.93;;
12222;SDS011;6174;49.058;8.524;2022-10-15T12:24:50;0.90;;;0.90;;
12222;SDS011;6174;49.058;8.524;2022-10-15T12:27:28;1.60;;;0.73;;
12222;SDS011;6174;49.058;8.524;2022-10-15T12:32:53;2.67;;;0.90;;
12222;SDS011;6174;49.058;8.524;2022-10-15T12:35:22;1.03;;;1.00;;
12222;SDS011;6174;49.058;8.524;2022-10-15T12:37:57;1.27;;;0.80;;
12222;SDS011;6174;49.058;8.524;2022-10-15T12:40:43;2.57;;;0.87;;
12222;SDS011;6174;49.058;8.524;2022-10-15T12:43:11;1.00;;;0.80;;
12222;SDS011;6174;49.058;8.524;2022-10-15T12:45:49;0.87;;;0.87;;
12222;SDS011;6174;49.058;8.524;2022-10-15T12:48:22;1.77;;;0.97;;
12222;SDS011;6174;49.058;8.524;2022-10-15T12:53:57;2.70;;;0.80;;
12222;SDS011;6174;49.058;8.524;2022-10-15T12:56:34;1.87;;;0.90;;
12222;SDS011;6174;49.058;8.524;2022-10-15T12:59:03;1.07;;;0.90;;
12222;SDS011;6174;49.058;8.524;2022-10-15T13:01:50;3.07;;;0.90;;
12222;SDS011;6174;49.058;8.524;2022-10-15T13:04:17;2.07;;;0.90;;
12222;SDS011;6174;49.058;8.524;2022-10-15T13:06:44;0.80;;;0.73;;
12222;SDS011;6174;49.058;8.524;2022-10-15T13:09:25;1.67;;;0.90;;
12222;SDS011;6174;49.058;8.524;2022-10-15T13:11:54;1.53;;;1.43;;
12222;SDS011;6174;49.058;8.524;2022-10-15T13:14:32;2.00;;;1.00;;
12222;SDS011;6174;49.058;8.524;2022-10-15T13:17:03;1.47;;;0.90;;
12222;SDS011;6174;49.058;8.524;2022-10-15T13:19:38;2.17;;;1.00;;
12222;SDS011;6174;49.058;8.524;2022-10-15T13:22:19;1.83;;;0.90;;
12222;SDS011;6174;49.058;8.524;2022-10-15T13:24:49;0.60;;;0.60;;
12222;SDS011;6174;49.058;8.524;2022-10-15T13:27:20;0.80;;;0.73;;
12222;SDS011;6174;49.058;8.524;2022-10-15T13:29:52;1.60;;;0.70;;
12222;SDS011;6174;49.058;8.524;2022-10-15T13:32:20;2.30;;;1.00;;
12222;SDS011;6174;49.058;8.524;2022-10-15T13:34:47;1.47;;;0.90;;
12222;SDS011;6174;49.058;8.524;2022-10-15T13:37:16;1.73;;;1.07;;
12222;SDS011;6174;49.058;8.524;2022-10-15T13:39:45;1.33;;;1.03;;
12222;SDS011;6174;49.058;8.524;2022-10-15T13:42:18;1.20;;;1.20;;
12222;SDS011;6174;49.058;8.524;2022-10-15T13:44:55;1.90;;;1.70;;
12222;SDS011;6174;49.058;8.524;2022-10-15T13:47:24;2.83;;;1.67;;
12222;SDS011;6174;49.058;8.524;2022-10-15T13:52:44;1.20;;;0.87;;
12222;SDS011;6174;49.058;8.524;2022-10-15T13:55:17;1.03;;;0.90;;
12222;SDS011;6174;49.058;8.524;2022-10-15T13:57:46;1.20;;;1.10;;
12222;SDS011;6174;49.058;8.524;2022-10-15T14:00:18;0.60;;;0.60;;
12222;SDS011;6174;49.058;8.524;2022-10-15T14:02:48;1.77;;;1.10;;
12222;SDS011;6174;49.058;8.524;2022-10-15T14:05:32;0.90;;;0.90;;
12222;SDS011;6174;49.058;8.524;2022-10-15T14:07:59;1.23;;;1.13;;
12222;SDS011;6174;49.058;8.524;2022-10-15T14:10:27;1.60;;;1.10;;
12222;SDS011;6174;49.058;8.524;2022-10-15T14:12:54;1.20;;;1.10;;
12222;SDS011;6174;49.058;8.524;2022-10-15T14:15:44;1.23;;;1.13;;
12222;SDS011;6174;49.058;8.524;2022-10-15T14:18:14;3.00;;;1.33;;
12222;SDS011;6174;49.058;8.524;2022-10-15T14:20:51;1.90;;;1.20;;
12222;SDS011;6174;49.058;8.524;2022-10-15T14:23:19;1.77;;;1.40;;
12222;SDS011;6174;49.058;8.524;2022-10-15T14:25:53;3.37;;;1.30;;
12222;SDS011;6174;49.058;8.524;2022-10-15T14:28:21;1.43;;;1.33;;
12222;SDS011;6174;49.058;8.524;2022-10-15T14:30:49;1.57;;;1.00;;
12222;SDS011;6174;49.058;8.524;2022-10-15T14:36:24;1.77;;;1.50;;
12222;SDS011;6174;49.058;8.524;2022-10-15T14:38:53;1.50;;;1.40;;
12222;SDS011;6174;49.058;8.524;2022-10-15T14:41:26;1.40;;;1.30;;
12222;SDS011;6174;49.058;8.524;2022-10-15T14:44:01;1.43;;;1.30;;
12222;SDS011;6174;49.058;8.524;2022-10-15T14:46:34;1.20;;;1.10;;
12222;SDS011;6174;49.058;8.524;2022-10-15T14:49:05;1.77;;;1.20;;
12222;SDS011;6174;49.058;8.524;2022-10-15T14:51:53;2.43;;;1.23;;
12222;SDS011;6174;49.058;8.524;2022-10-15T14:54:22;2.23;;;1.30;;
12222;SDS011;6174;49.058;8.524;2022-10-15T14:56:56;2.00;;;1.10;;
12222;SDS011;6174;49.058;8.524;2022-10-15T14:59:26;1.30;;;1.20;;
12222;SDS011;6174;49.058;8.524;2022-10-15T15:01:56;3.67;;;1.50;;
12222;SDS011;6174;49.058;8.524;2022-10-15T15:04:31;2.23;;;1.43;;
12222;SDS011;6174;49.058;8.524;2022-10-15T15:07:12;2.00;;;1.53;;
12222;SDS011;6174;49.058;8.524;2022-10-15T15:09:40;1.27;;;1.17;;
12222;SDS011;6174;49.058;8.524;2022-10-15T15:12:10;1.77;;;1.40;;
12222;SDS011;6174;49.058;8.524;2022-10-15T15:14:44;1.27;;;1.17;;
12222;SDS011;6174;49.058;8.524;2022-10-15T15:17:12;1.50;;;1.40;;
12222;SDS011;6174;49.058;8.524;2022-10-15T15:19:44;1.87;;;1.03;;
12222;SDS011;6174;49.058;8.524;2022-10-15T15:22:14;1.77;;;1.57;;
12222;SDS011;6174;49.058;8.524;2022-10-15T15:24:42;1.30;;;1.30;;
12222;SDS011;6174;49.058;8.524;2022-10-15T15:27:16;2.60;;;1.60;;
12222;SDS011;6174;49.058;8.524;2022-10-15T15:29:47;2.20;;;1.60;;
12222;SDS011;6174;49.058;8.524;2022-10-15T15:32:14;2.80;;;1.60;;
12222;SDS011;6174;49.058;8.524;2022-10-15T15:34:41;4.30;;;1.60;;
12222;SDS011;6174;49.058;8.524;2022-10-15T15:37:11;2.13;;;1.30;;
12222;SDS011;6174;49.058;8.524;2022-10-15T15:39:38;2.07;;;1.87;;
12222;SDS011;6174;49.058;8.524;2022-10-15T15:42:05;2.00;;;1.63;;
12222;SDS011;6174;49.058;8.524;2022-10-15T15:44:34;1.93;;;1.50;;
12222;SDS011;6174;49.058;8.524;2022-10-15T15:47:01;1.90;;;1.40;;
12222;SDS011;6174;49.058;8.524;2022-10-15T15:49:28;2.40;;;1.33;;
12222;SDS011;6174;49.058;8.524;2022-10-15T15:51:55;1.60;;;1.50;;
12222;SDS011;6174;49.058;8.524;2022-10-15T15:54:21;1.70;;;1.60;;
12222;SDS011;6174;49.058;8.524;2022-10-15T15:56:48;2.40;;;1.50;;
12222;SDS011;6174;49.058;8.524;2022-10-15T15:59:15;2.07;;;1.63;;
12222;SDS011;6174;49.058;8.524;2022-10-15T16:01:44;1.50;;;1.40;;
12222;SDS011;6174;49.058;8.524;2022-10-15T16:04:11;1.77;;;1.30;;
12222;SDS011;6174;49.058;8.524;2022-10-15T16:06:38;0.90;;;0.90;;
12222;SDS011;6174;49.058;8.524;2022-10-15T16:09:06;2.40;;;1.10;;
12222;SDS011;6174;49.058;8.524;2022-10-15T16:11:33;0.80;;;0.80;;
12222;SDS011;6174;49.058;8.524;2022-10-15T16:14:03;0.90;;;0.90;;
12222;SDS011;6174;49.058;8.524;2022-10-15T16:16:29;1.00;;;1.00;;
12222;SDS011;6174;49.058;8.524;2022-10-15T16:18:57;1.53;;;1.00;;
12222;SDS011;6174;49.058;8.524;2022-10-15T16:21:24;1.00;;;0.73;;
12222;SDS011;6174;49.058;8.524;2022-10-15T16:23:52;1.07;;;1.00;;
12222;SDS011;6174;49.058;8.524;2022-10-15T16:26:19;0.63;;;0.60;;
12222;SDS011;6174;49.058;8.524;2022-10-15T16:28:46;0.77;;;0.77;;
12222;SDS011;6174;49.058;8.524;2022-10-15T16:31:13;2.10;;;0.83;;
12222;SDS011;6174;49.058;8.524;2022-10-15T16:33:41;1.30;;;0.83;;
12222;SDS011;6174;49.058;8.524;2022-10-15T16:36:09;0.80;;;0.80;;
12222;SDS011;6174;49.058;8.524;2022-10-15T16:38:37;0.70;;;0.70;;
12222;SDS011;6174;49.058;8.524;2022-10-15T16:41:04;0.70;;;0.70;;
12222;SDS011;6174;49.058;8.524;2022-10-15T16:43:31;1.60;;;1.00;;
12222;SDS011;6174;49.058;8.524;2022-10-15T16:45:58;2.50;;;1.00;;
12222;SDS011;6174;49.058;8.524;2022-10-15T16:48:27;0.83;;;0.83;;
12222;SDS011;6174;49.058;8.524;2022-10-15T16:50:58;1.60;;;1.07;;
12222;SDS011;6174;49.058;8.524;2022-10-15T16:53:26;1.73;;;1.10;;
12222;SDS011;6174;49.058;8.524;2022-10-15T16:55:58;1.60;;;1.50;;
12222;SDS011;6174;49.058;8.524;2022-10-15T16:58:26;1.40;;;1.30;;
12222;SDS011;6174;49.058;8.524;2022-10-15T17:00:56;1.90;;;1.30;;
12222;SDS011;6174;49.058;8.524;2022-10-15T17:03:24;1.70;;;1.30;;
12222;SDS011;6174;49.058;8.524;2022-10-15T17:05:54;1.60;;;1.43;;
12222;SDS011;6174;49.058;8.524;2022-10-15T17:08:21;3.37;;;2.00;;
12222;SDS011;6174;49.058;8.524;2022-10-15T17:10:50;1.87;;;1.30;;
12222;SDS011;6174;49.058;8.524;2022-10-15T17:13:17;2.00;;;1.60;;
12222;SDS011;6174;49.058;8.524;2022-10-15T17:15:44;1.73;;;1.63;;
12222;SDS011;6174;49.058;8.524;2022-10-15T17:18:11;1.77;;;1.30;;
12222;SDS011;6174;49.058;8.524;2022-10-15T17:20:41;1.90;;;1.33;;
12222;SDS011;6174;49.058;8.524;2022-10-15T17:23:09;1.83;;;1.30;;
12222;SDS011;6174;49.058;8.524;2022-10-15T17:25:36;1.30;;;1.20;;
12222;SDS011;6174;49.058;8.524;2022-10-15T17:28:04;2.17;;;1.30;;
12222;SDS011;6174;49.058;8.524;2022-10-15T17:30:33;2.43;;;1.77;;
12222;SDS011;6174;49.058;8.524;2022-10-15T17:33:00;3.23;;;1.40;;
12222;SDS011;6174;49.058;8.524;2022-10-15T17:35:27;1.30;;;1.20;;
12222;SDS011;6174;49.058;8.524;2022-10-15T17:37:55;1.43;;;1.33;;
12222;SDS011;6174;49.058;8.524;2022-10-15T17:40:22;1.33;;;1.20;;
12222;SDS011;6174;49.058;8.524;2022-10-15T17:42:49;1.80;;;1.67;;
12222;SDS011;6174;49.058;8.524;2022-10-15T17:45:17;1.50;;;1.40;;
12222;SDS011;6174;49.058;8.524;2022-10-15T17:47:44;1.40;;;1.20;;
12222;SDS011;6174;49.058;8.524;2022-10-15T17:50:10;1.30;;;1.30;;
12222;SDS011;6174;49.058;8.524;2022-10-15T17:52:38;1.60;;;1.40;;
12222;SDS011;6174;49.058;8.524;2022-10-15T17:55:05;1.30;;;1.30;;
12222;SDS011;6174;49.058;8.524;2022-10-15T17:57:33;1.50;;;1.07;;
12222;SDS011;6174;49.058;8.524;2022-10-15T17:59:59;1.67;;;1.50;;
12222;SDS011;6174;49.058;8.524;2022-10-15T18:02:28;1.87;;;1.70;;
12222;SDS011;6174;49.058;8.524;2022-10-15T18:04:54;4.23;;;2.17;;
12222;SDS011;6174;49.058;8.524;2022-10-15T18:07:21;1.77;;;1.60;;
12222;SDS011;6174;49.058;8.524;2022-10-15T18:09:48;1.90;;;1.77;;
12222;SDS011;6174;49.058;8.524;2022-10-15T18:12:14;2.03;;;1.50;;
12222;SDS011;6174;49.058;8.524;2022-10-15T18:14:41;4.60;;;3.60;;
12222;SDS011;6174;49.058;8.524;2022-10-15T18:17:08;5.27;;;4.30;;
12222;SDS011;6174;49.058;8.524;2022-10-15T18:19:36;3.13;;;2.30;;
12222;SDS011;6174;49.058;8.524;2022-10-15T18:22:03;2.23;;;1.60;;
12222;SDS011;6174;49.058;8.524;2022-10-15T18:24:30;2.00;;;1.80;;
12222;SDS011;6174;49.058;8.524;2022-10-15T18:26:57;2.67;;;1.87;;
12222;SDS011;6174;49.058;8.524;2022-10-15T18:29:23;1.77;;;1.67;;
12222;SDS011;6174;49.058;8.524;2022-10-15T18:31:50;2.40;;;2.20;;
12222;SDS011;6174;49.058;8.524;2022-10-15T18:34:17;1.93;;;1.70;;
12222;SDS011;6174;49.058;8.524;2022-10-15T18:36:45;4.20;;;1.67;;
12222;SDS011;6174;49.058;8.524;2022-10-15T18:39:12;1.97;;;1.70;;
12222;SDS011;6174;49.058;8.524;2022-10-15T18:41:39;2.53;;;2.20;;
12222;SDS011;6174;49.058;8.524;2022-10-15T18:44:06;3.50;;;3.20;;
12222;SDS011;6174;49.058;8.524;2022-10-15T18:46:38;6.90;;;6.40;;
12222;SDS011;6174;49.058;8.524;2022-10-15T18:49:06;2.17;;;1.97;;
12222;SDS011;6174;49.058;8.524;2022-10-15T18:51:33;2.57;;;2.37;;
12222;SDS011;6174;49.058;8.524;2022-10-15T18:54:01;2.70;;;2.07;;
12222;SDS011;6174;49.058;8.524;2022-10-15T18:56:30;3.00;;;2.80;;
12222;SDS011;6174;49.058;8.524;2022-10-15T18:58:56;4.97;;;3.07;;
12222;SDS011;6174;49.058;8.524;2022-10-15T19:01:24;5.17;;;4.77;;
12222;SDS011;6174;49.058;8.524;2022-10-15T19:03:52;5.87;;;5.07;;
12222;SDS011;6174;49.058;8.524;2022-10-15T19:06:19;6.90;;;5.23;;
12222;SDS011;6174;49.058;8.524;2022-10-15T19:08:48;9.43;;;8.57;;
12222;SDS011;6174;49.058;8.524;2022-10-15T19:11:16;6.87;;;5.47;;
12222;SDS011;6174;49.058;8.524;2022-10-15T19:13:44;8.23;;;6.43;;
12222;SDS011;6174;49.058;8.524;2022-10-15T19:16:11;6.50;;;5.30;;
12222;SDS011;6174;49.058;8.524;2022-10-15T19:18:38;3.50;;;3.00;;
12222;SDS011;6174;49.058;8.524;2022-10-15T19:21:04;3.80;;;3.13;;
12222;SDS011;6174;49.058;8.524;2022-10-15T19:23:31;5.00;;;3.00;;
12222;SDS011;6174;49.058;8.524;2022-10-15T19:25:59;3.80;;;2.90;;
12222;SDS011;6174;49.058;8.524;2022-10-15T19:28:27;2.97;;;2.73;;
12222;SDS011;6174;49.058;8.524;2022-10-15T19:30:54;4.03;;;3.17;;
12222;SDS011;6174;49.058;8.524;2022-10-15T19:33:22;16.23;;;10.33;;
12222;SDS011;6174;49.058;8.524;2022-10-15T19:35:50;7.90;;;5.73;;
12222;SDS011;6174;49.058;8.524;2022-10-15T19:38:17;6.60;;;5.37;;
12222;SDS011;6174;49.058;8.524;2022-10-15T19:40:44;7.80;;;3.80;;
12222;SDS011;6174;49.058;8.524;2022-10-15T19:43:11;9.83;;;7.20;;
12222;SDS011;6174;49.058;8.524;2022-10-15T19:45:41;8.27;;;6.50;;
12222;SDS011;6174;49.058;8.524;2022-10-15T19:48:09;7.13;;;4.90;;
12222;SDS011;6174;49.058;8.524;2022-10-15T19:50:37;4.67;;;4.13;;
12222;SDS011;6174;49.058;8.524;2022-10-15T19:53:05;5.63;;;3.80;;
12222;SDS011;6174;49.058;8.524;2022-10-15T19:55:33;4.77;;;3.17;;
12222;SDS011;6174;49.058;8.524;2022-10-15T19:58:00;2.97;;;2.70;;
12222;SDS011;6174;49.058;8.524;2022-10-15T20:00:30;2.70;;;2.50;;
12222;SDS011;6174;49.058;8.524;2022-10-15T20:02:58;3.47;;;2.60;;
12222;SDS011;6174;49.058;8.524;2022-10-15T20:05:25;3.13;;;2.40;;
12222;SDS011;6174;49.058;8.524;2022-10-15T20:07:51;3.43;;;2.60;;
12222;SDS011;6174;49.058;8.524;2022-10-15T20:10:18;4.80;;;2.70;;
12222;SDS011;6174;49.058;8.524;2022-10-15T20:12:45;3.07;;;2.50;;
12222;SDS011;6174;49.058;8.524;2022-10-15T20:15:12;2.13;;;1.60;;
12222;SDS011;6174;49.058;8.524;2022-10-15T20:17:39;1.23;;;1.23;;
12222;SDS011;6174;49.058;8.524;2022-10-15T20:20:07;1.30;;;1.20;;
12222;SDS011;6174;49.058;8.524;2022-10-15T20:22:34;1.50;;;1.10;;
12222;SDS011;6174;49.058;8.524;2022-10-15T20:25:01;1.43;;;1.33;;
12222;SDS011;6174;49.058;8.524;2022-10-15T20:27:27;1.57;;;1.20;;
12222;SDS011;6174;49.058;8.524;2022-10-15T20:29:54;1.70;;;1.60;;